createdAt,value
2022-11-06T00:02:19.186Z,98167.59
2022-11-06T00:04:48.411Z,98166.88
2022-11-06T00:07:15.137Z,98160.22
2022-11-06T00:09:41.837Z,98170.72
2022-11-06T00:12:08.528Z,98173.53
2022-11-06T00:14:35.408Z,98167.78
2022-11-06T00:17:02.096Z,98169.72
2022-11-06T00:19:28.791Z,98169.06
2022-11-06T00:21:55.677Z,98169.34
2022-11-06T00:24:22.388Z,98162.59
2022-11-06T00:26:54.211Z,98173.09
2022-11-06T00:29:21.416Z,98173.16
2022-11-06T00:31:50.263Z,98167.41
2022-11-06T00:34:17.066Z,98169.31
2022-11-06T00:36:43.820Z,98160.97
2022-11-06T00:39:11.507Z,98165.47
2022-11-06T00:41:38.212Z,98164.78
2022-11-06T00:44:04.985Z,98163.31
2022-11-06T00:46:32.096Z,98167.13
2022-11-06T00:48:58.796Z,98167.28
2022-11-06T00:51:32.419Z,98160.59
2022-11-06T00:54:03.739Z,98166.00
2022-11-06T00:56:32.076Z,98160.34
2022-11-06T00:59:01.156Z,98165.63
2022-11-06T01:01:30.801Z,98160.69
2022-11-06T01:04:16.745Z,98160.13
2022-11-06T01:06:47.303Z,98163.81
2022-11-06T01:09:18.825Z,98171.72
2022-11-06T01:12:12.191Z,98174.53
2022-11-06T01:14:42.375Z,98172.97
2022-11-06T01:17:09.313Z,98174.97
2022-11-06T01:19:36.351Z,98178.44
2022-11-06T01:22:03.237Z,98175.94
2022-11-06T01:24:30.396Z,98175.25
2022-11-06T01:27:24.947Z,98172.06
2022-11-06T01:29:44.728Z,98165.31
2022-11-06T01:32:11.891Z,98168.88
2022-11-06T01:34:38.964Z,98169.91
2022-11-06T01:37:05.740Z,98172.66
2022-11-06T01:39:32.503Z,98170.16
2022-11-06T01:41:59.252Z,98171.97
2022-11-06T01:44:40.865Z,98169.47
2022-11-06T01:47:27.113Z,98173.09
2022-11-06T01:49:59.968Z,98164.75
2022-11-06T01:52:29.466Z,98169.91
2022-11-06T01:55:18.057Z,98160.34
2022-11-06T01:57:46.634Z,98162.09
2022-11-06T02:00:14.202Z,98162.44
2022-11-06T02:02:41.631Z,98154.88
2022-11-06T02:05:09.136Z,98163.34
2022-11-06T02:07:36.734Z,98162.59
2022-11-06T02:10:03.873Z,98156.69
2022-11-06T02:12:45.570Z,98149.03
2022-11-06T02:15:37.265Z,98147.38
2022-11-06T02:18:38.168Z,98150.19
2022-11-06T02:21:34.388Z,98143.31
2022-11-06T02:24:47.381Z,98145.16
2022-11-06T02:27:24.783Z,98140.06
2022-11-06T02:30:11.895Z,98139.38
2022-11-06T02:33:01.325Z,98149.69
2022-11-06T02:35:40.561Z,98147.94
2022-11-06T02:38:16.778Z,98144.69
2022-11-06T02:40:52.769Z,98150.94
2022-11-06T02:43:23.852Z,98146.84
2022-11-06T02:46:11.381Z,98140.09
2022-11-06T02:48:46.782Z,98130.84
2022-11-06T02:51:19.598Z,98132.81
2022-11-06T02:53:48.605Z,98135.38
2022-11-06T02:56:24.208Z,98140.53
2022-11-06T02:59:05.060Z,98130.38
2022-11-06T03:01:44.707Z,98132.94
2022-11-06T03:04:27.729Z,98131.41
2022-11-06T03:07:18.426Z,98134.13
2022-11-06T03:09:45.605Z,98138.59
2022-11-06T03:12:32.755Z,98133.66
2022-11-06T03:15:27.556Z,98126.13
2022-11-06T03:18:13.805Z,98125.50
2022-11-06T03:20:57.021Z,98124.03
2022-11-06T03:23:50.025Z,98130.88
2022-11-06T03:26:33.584Z,98121.41
2022-11-06T03:29:37.748Z,98109.50
2022-11-06T03:32:23.997Z,98105.47
2022-11-06T03:35:13.723Z,98108.38
2022-11-06T03:37:51.451Z,98107.91
2022-11-06T03:40:24.002Z,98105.59
2022-11-06T03:42:57.006Z,98108.22
2022-11-06T03:45:26.653Z,98108.38
2022-11-06T03:48:13.756Z,98110.25
2022-11-06T03:50:56.627Z,98109.44
2022-11-06T03:53:39.787Z,98100.09
2022-11-06T03:56:14.815Z,98095.00
2022-11-06T03:58:47.165Z,98098.41
2022-11-06T04:01:21.023Z,98090.84
2022-11-06T04:04:05.642Z,98088.56
2022-11-06T04:06:43.868Z,98087.16
2022-11-06T04:09:33.869Z,98082.28
2022-11-06T04:12:22.941Z,98087.44
2022-11-06T04:14:54.644Z,98084.06
2022-11-06T04:17:26.233Z,98084.13
2022-11-06T04:19:59.602Z,98073.09
2022-11-06T04:22:45.853Z,98076.63
2022-11-06T04:25:53.351Z,98081.84
2022-11-06T04:28:51.428Z,98082.81
2022-11-06T04:31:50.374Z,98078.69
2022-11-06T04:35:24.142Z,98090.00
2022-11-06T04:38:42.108Z,98085.63
2022-11-06T04:41:36.557Z,98084.78
2022-11-06T04:44:33.490Z,98080.75
2022-11-06T04:47:09.298Z,98082.59
2022-11-06T04:49:40.854Z,98074.97
2022-11-06T04:52:13.260Z,98078.38
2022-11-06T04:54:40.523Z,98078.44
2022-11-06T04:57:07.815Z,98079.34
2022-11-06T04:59:37.088Z,98070.94
2022-11-06T05:02:05.492Z,98071.78
2022-11-06T05:04:33.559Z,98075.38
2022-11-06T05:07:00.548Z,98066.88
2022-11-06T05:09:27.369Z,98066.09
2022-11-06T05:11:54.127Z,98056.88
2022-11-06T05:14:20.857Z,98056.25
2022-11-06T05:16:47.599Z,98052.00
2022-11-06T05:19:14.309Z,98052.94
2022-11-06T05:21:59.954Z,98053.69
2022-11-06T05:24:26.692Z,98057.91
2022-11-06T05:26:58.930Z,98047.69
2022-11-06T05:29:26.553Z,98045.31
2022-11-06T05:31:53.472Z,98038.56
2022-11-06T05:34:20.884Z,98036.97
2022-11-06T05:36:47.697Z,98036.28
2022-11-06T05:39:14.389Z,98035.47
2022-11-06T05:41:41.079Z,98027.84
2022-11-06T05:44:07.835Z,98016.75
2022-11-06T05:46:50.347Z,98018.59
2022-11-06T05:49:18.769Z,98018.81
2022-11-06T05:51:46.700Z,98018.81
2022-11-06T05:54:14.219Z,98023.03
2022-11-06T05:56:40.940Z,98019.66
2022-11-06T05:59:07.677Z,98016.34
2022-11-06T06:01:34.517Z,98018.22
2022-11-06T06:04:01.432Z,98020.84
2022-11-06T06:06:28.550Z,98016.63
2022-11-06T06:08:55.253Z,98014.13
2022-11-06T06:11:21.963Z,98015.13
2022-11-06T06:13:48.676Z,98017.69
2022-11-06T06:16:15.953Z,98021.94
2022-11-06T06:18:42.880Z,98008.09
2022-11-06T06:21:09.788Z,98010.66
2022-11-06T06:23:36.484Z,98007.31
2022-11-06T06:26:03.239Z,97998.00
2022-11-06T06:28:30.051Z,98004.91
2022-11-06T06:31:01.258Z,98022.13
2022-11-06T06:33:28.618Z,98027.38
2022-11-06T06:35:55.332Z,98037.59
2022-11-06T06:38:22.553Z,98024.63
2022-11-06T06:40:49.285Z,98027.94
2022-11-06T06:43:15.984Z,98027.91
2022-11-06T06:45:42.822Z,98047.47
2022-11-06T06:48:09.516Z,98044.72
2022-11-06T06:50:36.264Z,98051.44
2022-11-06T06:53:03.688Z,98059.94
2022-11-06T06:55:30.377Z,98053.72
2022-11-06T06:58:01.577Z,98058.28
2022-11-06T07:00:29.579Z,98065.47
2022-11-06T07:02:56.631Z,98077.75
2022-11-06T07:05:23.780Z,98085.03
2022-11-06T07:07:50.730Z,98102.25
2022-11-06T07:10:17.536Z,98116.31
2022-11-06T07:12:44.421Z,98107.06
2022-11-06T07:15:11.435Z,98111.78
2022-11-06T07:17:38.267Z,98095.44
2022-11-06T07:20:06.510Z,98089.53
2022-11-06T07:22:37.441Z,98094.97
2022-11-06T07:25:05.977Z,98083.22
2022-11-06T07:27:33.429Z,98071.47
2022-11-06T07:30:00.497Z,98066.34
2022-11-06T07:32:27.836Z,98060.06
2022-11-06T07:34:54.820Z,98059.78
2022-11-06T07:37:21.937Z,98057.66
2022-11-06T07:39:48.658Z,98068.59
2022-11-06T07:42:15.407Z,98064.81
2022-11-06T07:44:42.082Z,98058.41
2022-11-06T07:47:08.783Z,98053.94
2022-11-06T07:49:35.510Z,98058.81
2022-11-06T07:52:02.300Z,98057.59
2022-11-06T07:54:28.976Z,98059.81
2022-11-06T07:56:55.692Z,98055.09
2022-11-06T07:59:22.566Z,98050.31
2022-11-06T08:01:49.483Z,98054.94
2022-11-06T08:04:16.251Z,98049.44
2022-11-06T08:06:42.981Z,98048.19
2022-11-06T08:09:10.058Z,98040.00
2022-11-06T08:11:37.085Z,98044.75
2022-11-06T08:14:04.088Z,98041.28
2022-11-06T08:16:31.495Z,98027.25
2022-11-06T08:18:58.225Z,98024.41
2022-11-06T08:21:24.962Z,98036.75
2022-11-06T08:23:51.650Z,98029.63
2022-11-06T08:26:18.412Z,98030.22
2022-11-06T08:28:45.188Z,98018.81
2022-11-06T08:31:12.253Z,98016.13
2022-11-06T08:33:39.859Z,98002.28
2022-11-06T08:36:09.171Z,97986.44
2022-11-06T08:38:36.770Z,97987.84
2022-11-06T08:41:12.275Z,97985.56
2022-11-06T08:43:39.370Z,97994.00
2022-11-06T08:46:08.676Z,97983.41
2022-11-06T08:48:35.905Z,97997.63
2022-11-06T08:51:05.194Z,97987.56
2022-11-06T08:53:31.961Z,97984.03
2022-11-06T08:55:58.865Z,97985.75
2022-11-06T08:58:25.688Z,97988.06
2022-11-06T09:00:52.438Z,97975.28
2022-11-06T09:03:19.388Z,97979.34
2022-11-06T09:05:46.700Z,97967.09
2022-11-06T09:08:16.163Z,97968.16
2022-11-06T09:10:43.815Z,97977.97
2022-11-06T09:13:12.026Z,97977.69
2022-11-06T09:15:40.572Z,97971.59
2022-11-06T09:18:08.223Z,97956.50
2022-11-06T09:20:35.574Z,97949.31
2022-11-06T09:23:05.428Z,97944.53
2022-11-06T09:25:32.619Z,97946.78
2022-11-06T09:28:00.039Z,97928.13
2022-11-06T09:30:30.540Z,97934.22
2022-11-06T09:33:01.193Z,97934.78
2022-11-06T09:35:31.677Z,97935.63
2022-11-06T09:38:09.556Z,97926.84
2022-11-06T09:40:51.414Z,97928.19
2022-11-06T09:44:04.192Z,97914.63
2022-11-06T09:46:38.362Z,97902.25
2022-11-06T09:49:24.058Z,97901.78
2022-11-06T09:52:35.836Z,97900.03
2022-11-06T09:55:13.849Z,97904.47
2022-11-06T09:57:47.861Z,97891.63
2022-11-06T10:00:17.903Z,97883.78
2022-11-06T10:02:52.364Z,97896.50
2022-11-06T10:05:34.197Z,97902.59
2022-11-06T10:08:07.231Z,97886.81
2022-11-06T10:11:41.092Z,97865.41
2022-11-06T10:14:28.106Z,97871.16
2022-11-06T10:17:07.322Z,97869.09
2022-11-06T10:19:59.562Z,97864.16
2022-11-06T10:22:55.168Z,97856.19
2022-11-06T10:25:40.742Z,97859.25
2022-11-06T10:28:44.014Z,97856.25
2022-11-06T10:31:32.862Z,97865.28
2022-11-06T10:34:31.387Z,97866.53
2022-11-06T10:37:13.135Z,97872.34
2022-11-06T10:39:41.217Z,97865.41
2022-11-06T10:42:20.411Z,97861.34
2022-11-06T10:44:53.506Z,97858.25
2022-11-06T10:47:24.208Z,97846.59
2022-11-06T10:50:01.857Z,97840.69
2022-11-06T10:52:45.824Z,97836.00
2022-11-06T10:55:24.539Z,97830.00
2022-11-06T10:58:33.210Z,97834.34
2022-11-06T11:01:04.148Z,97829.41
2022-11-06T11:04:00.359Z,97815.97
2022-11-06T11:06:27.294Z,97803.34
2022-11-06T11:08:54.039Z,97810.53
2022-11-06T11:11:27.384Z,97807.84
2022-11-06T11:13:56.760Z,97805.81
2022-11-06T11:16:33.573Z,97809.84
2022-11-06T11:19:39.148Z,97805.38
2022-11-06T11:22:21.606Z,97800.09
2022-11-06T11:25:06.531Z,97795.34
2022-11-06T11:27:46.546Z,97795.84
2022-11-06T11:30:26.706Z,97780.72
2022-11-06T11:32:55.216Z,97789.84
2022-11-06T11:35:29.314Z,97786.31
2022-11-06T11:38:15.435Z,97795.63
2022-11-06T11:40:43.155Z,97788.91
2022-11-06T11:43:19.263Z,97786.31
2022-11-06T11:46:10.311Z,97794.09
2022-11-06T11:48:58.597Z,97787.34
2022-11-06T11:51:37.303Z,97766.53
2022-11-06T11:54:19.800Z,97772.13
2022-11-06T11:57:06.895Z,97767.84
2022-11-06T11:59:42.649Z,97760.47
2022-11-06T12:02:28.234Z,97752.38
2022-11-06T12:05:10.665Z,97751.97
2022-11-06T12:07:46.141Z,97756.22
2022-11-06T12:10:27.761Z,97760.47
2022-11-06T12:12:56.594Z,97748.84
2022-11-06T12:15:51.837Z,97743.16
2022-11-06T12:18:26.988Z,97738.19
2022-11-06T12:21:12.503Z,97730.41
2022-11-06T12:23:41.974Z,97720.66
2022-11-06T12:26:29.469Z,97716.28
2022-11-06T12:29:07.506Z,97718.16
2022-11-06T12:32:25.474Z,97709.22
2022-11-06T12:35:09.601Z,97697.63
2022-11-06T12:37:44.619Z,97696.56
2022-11-06T12:40:30.051Z,97697.28
2022-11-06T12:43:33.187Z,97686.78
2022-11-06T12:46:44.060Z,97694.47
2022-11-06T12:50:11.738Z,97685.25
2022-11-06T12:53:16.039Z,97678.53
2022-11-06T12:56:02.581Z,97675.63
2022-11-06T12:58:42.687Z,97686.13
2022-11-06T13:01:20.464Z,97667.25
2022-11-06T13:04:26.247Z,97661.34
2022-11-06T13:07:24.158Z,97656.28
2022-11-06T13:10:11.488Z,97655.53
2022-11-06T13:13:17.327Z,97641.75
2022-11-06T13:16:17.396Z,97630.44
2022-11-06T13:19:15.294Z,97626.72
2022-11-06T13:21:50.841Z,97623.19
2022-11-06T13:25:02.565Z,97630.97
2022-11-06T13:28:11.973Z,97634.25
2022-11-06T13:30:40.564Z,97624.94
2022-11-06T13:33:24.216Z,97617.06
2022-11-06T13:35:51.554Z,97614.56
2022-11-06T13:38:33.950Z,97604.31
2022-11-06T13:41:12.653Z,97601.63
2022-11-06T13:43:45.234Z,97589.38
2022-11-06T13:46:47.600Z,97587.13
2022-11-06T13:49:34.037Z,97588.75
2022-11-06T13:52:51.836Z,97579.22
2022-11-06T13:55:57.095Z,97575.81
2022-11-06T13:58:40.866Z,97574.97
2022-11-06T14:01:44.181Z,97571.75
2022-11-06T14:04:47.428Z,97553.59
2022-11-06T14:07:20.147Z,97528.19
2022-11-06T14:09:47.697Z,97520.34
2022-11-06T14:12:23.052Z,97510.63
2022-11-06T14:15:12.670Z,97512.06
2022-11-06T14:17:39.535Z,97505.72
2022-11-06T14:20:37.709Z,97508.34
2022-11-06T14:23:28.968Z,97509.41
2022-11-06T14:26:10.604Z,97510.72
2022-11-06T14:28:43.444Z,97516.97
2022-11-06T14:31:31.329Z,97527.94
2022-11-06T14:34:00.864Z,97515.22
2022-11-06T14:36:36.987Z,97511.56
2022-11-06T14:39:10.222Z,97509.78
2022-11-06T14:41:38.273Z,97509.19
2022-11-06T14:44:30.607Z,97501.25
2022-11-06T14:47:02.537Z,97504.09
2022-11-06T14:49:46.236Z,97498.53
2022-11-06T14:52:15.866Z,97495.66
2022-11-06T14:55:02.077Z,97503.06
2022-11-06T14:57:52.097Z,97496.69
2022-11-06T15:00:51.925Z,97487.81
2022-11-06T15:03:46.311Z,97479.56
2022-11-06T15:06:18.974Z,97483.78
2022-11-06T15:08:45.596Z,97498.16
2022-11-06T15:11:30.778Z,97499.41
2022-11-06T15:14:06.102Z,97499.88
2022-11-06T15:17:10.196Z,97497.69
2022-11-06T15:19:48.472Z,97501.78
2022-11-06T15:22:31.585Z,97506.59
2022-11-06T15:25:27.628Z,97505.34
2022-11-06T15:28:21.911Z,97525.72
2022-11-06T15:30:59.827Z,97508.31
2022-11-06T15:33:47.707Z,97514.94
2022-11-06T15:36:19.378Z,97509.38
2022-11-06T15:38:46.188Z,97511.66
2022-11-06T15:41:19.669Z,97511.28
2022-11-06T15:43:50.076Z,97510.97
2022-11-06T15:46:29.295Z,97495.47
2022-11-06T15:49:19.110Z,97489.38
2022-11-06T15:52:00.130Z,97485.88
2022-11-06T15:54:44.030Z,97477.09
2022-11-06T15:57:21.403Z,97467.69
2022-11-06T15:59:48.629Z,97478.03
2022-11-06T16:02:19.704Z,97475.97
2022-11-06T16:04:48.985Z,97468.69
2022-11-06T16:07:19.448Z,97474.19
2022-11-06T16:09:47.384Z,97472.84
2022-11-06T16:12:17.658Z,97473.47
2022-11-06T16:14:45.313Z,97481.41
2022-11-06T16:17:23.160Z,97484.19
2022-11-06T16:19:53.880Z,97487.06
2022-11-06T16:22:29.477Z,97484.09
2022-11-06T16:25:17.594Z,97486.84
2022-11-06T16:27:44.738Z,97482.81
2022-11-06T16:30:25.441Z,97471.03
2022-11-06T16:32:53.156Z,97478.06
2022-11-06T16:35:37.133Z,97477.31
2022-11-06T16:38:39.192Z,97469.75
2022-11-06T16:41:03.756Z,97468.31
2022-11-06T16:43:30.501Z,97468.69
2022-11-06T16:46:07.530Z,97479.00
2022-11-06T16:48:43.008Z,97478.50
2022-11-06T16:51:28.429Z,97480.34
2022-11-06T16:54:03.538Z,97481.28
2022-11-06T16:56:34.873Z,97473.75
2022-11-06T16:59:25.774Z,97481.66
2022-11-06T17:01:52.793Z,97487.75
2022-11-06T17:04:26.895Z,97502.41
2022-11-06T17:06:54.890Z,97488.16
2022-11-06T17:09:35.712Z,97479.69
2022-11-06T17:12:03.635Z,97478.19
2022-11-06T17:14:32.093Z,97461.97
2022-11-06T17:17:01.011Z,97463.13
2022-11-06T17:19:29.093Z,97460.78
2022-11-06T17:21:56.693Z,97467.00
2022-11-06T17:24:38.846Z,97474.19
2022-11-06T17:27:06.384Z,97471.81
2022-11-06T17:29:35.972Z,97483.06
2022-11-06T17:32:02.880Z,97478.06
2022-11-06T17:34:29.579Z,97492.72
2022-11-06T17:36:56.511Z,97490.25
2022-11-06T17:39:23.386Z,97477.34
2022-11-06T17:41:50.108Z,97482.41
2022-11-06T17:44:17.284Z,97476.50
2022-11-06T17:46:46.785Z,97487.66
2022-11-06T17:49:18.171Z,97483.53
2022-11-06T17:51:58.563Z,97492.47
2022-11-06T17:54:34.101Z,97494.47
2022-11-06T17:57:06.828Z,97478.16
2022-11-06T17:59:34.769Z,97487.47
2022-11-06T18:02:01.965Z,97482.22
2022-11-06T18:04:34.226Z,97478.81
2022-11-06T18:07:01.072Z,97482.97
2022-11-06T18:09:28.142Z,97488.03
2022-11-06T18:11:56.028Z,97488.94
2022-11-06T18:14:25.257Z,97482.03
2022-11-06T18:16:53.171Z,97491.44
2022-11-06T18:19:23.422Z,97473.38
2022-11-06T18:21:50.169Z,97487.13
2022-11-06T18:24:17.187Z,97492.94
2022-11-06T18:26:44.056Z,97486.84
2022-11-06T18:29:13.333Z,97480.66
2022-11-06T18:31:40.980Z,97478.06
2022-11-06T18:34:19.845Z,97474.56
2022-11-06T18:36:51.058Z,97482.41
2022-11-06T18:39:19.184Z,97477.44
2022-11-06T18:41:45.920Z,97479.19
2022-11-06T18:44:12.710Z,97480.13
2022-11-06T18:46:39.542Z,97468.97
2022-11-06T18:49:06.246Z,97469.06
2022-11-06T18:51:35.551Z,97461.34
2022-11-06T18:54:07.281Z,97452.56
2022-11-06T18:56:36.143Z,97448.25
2022-11-06T18:59:06.121Z,97452.47
2022-11-06T19:01:34.864Z,97445.47
2022-11-06T19:04:03.546Z,97455.88
2022-11-06T19:06:31.109Z,97458.56
2022-11-06T19:08:58.788Z,97437.81
2022-11-06T19:11:25.596Z,97442.63
2022-11-06T19:13:52.353Z,97437.25
2022-11-06T19:16:19.536Z,97438.91
2022-11-06T19:21:29.778Z,97435.19
2022-11-06T19:24:04.156Z,97441.38
2022-11-06T19:26:32.691Z,97444.88
2022-11-06T19:29:00.497Z,97451.91
2022-11-06T19:31:31.648Z,97450.25
2022-11-06T19:33:59.462Z,97448.41
2022-11-06T19:36:26.456Z,97447.47
2022-11-06T19:38:53.819Z,97441.38
2022-11-06T19:41:21.115Z,97456.56
2022-11-06T19:43:47.849Z,97460.44
2022-11-06T19:46:23.485Z,97470.34
2022-11-06T19:48:52.659Z,97465.63
2022-11-06T19:51:19.476Z,97476.69
2022-11-06T19:53:46.230Z,97475.56
2022-11-06T19:56:16.285Z,97470.03
2022-11-06T19:58:43.672Z,97466.50
2022-11-06T20:01:13.302Z,97457.00
2022-11-06T20:03:40.583Z,97463.00
2022-11-06T20:06:08.420Z,97462.19
2022-11-06T20:08:38.495Z,97472.19
2022-11-06T20:11:12.647Z,97466.94
2022-11-06T20:13:43.829Z,97476.16
2022-11-06T20:16:15.681Z,97465.72
2022-11-06T20:18:44.805Z,97483.38
2022-11-06T20:21:12.596Z,97473.09
2022-11-06T20:23:39.553Z,97477.47
2022-11-06T20:26:07.265Z,97481.94
2022-11-06T20:28:34.646Z,97489.19
2022-11-06T20:31:11.341Z,97481.84
2022-11-06T20:33:39.083Z,97473.69
2022-11-06T20:36:30.988Z,97464.47
2022-11-06T20:39:00.365Z,97452.19
2022-11-06T20:41:29.165Z,97456.31
2022-11-06T20:43:56.033Z,97463.03
2022-11-06T20:46:24.296Z,97466.22
2022-11-06T20:48:51.721Z,97466.03
2022-11-06T20:51:23.165Z,97475.34
2022-11-06T20:53:50.871Z,97477.72
2022-11-06T20:56:21.545Z,97469.84
2022-11-06T20:58:48.483Z,97471.41
2022-11-06T21:01:19.864Z,97477.28
2022-11-06T21:03:50.095Z,97479.69
2022-11-06T21:06:20.324Z,97483.81
2022-11-06T21:08:47.538Z,97490.66
2022-11-06T21:11:21.806Z,97498.31
2022-11-06T21:13:53.283Z,97511.03
2022-11-06T21:16:29.959Z,97509.16
2022-11-06T21:18:58.450Z,97508.22
2022-11-06T21:21:29.073Z,97503.91
2022-11-06T21:23:56.427Z,97506.38
2022-11-06T21:26:30.709Z,97508.03
2022-11-06T21:28:58.192Z,97511.34
2022-11-06T21:31:28.853Z,97513.00
2022-11-06T21:33:58.576Z,97520.66
2022-11-06T21:36:37.767Z,97526.44
2022-11-06T21:39:09.118Z,97528.09
2022-11-06T21:41:36.660Z,97528.84
2022-11-06T21:44:06.054Z,97535.56
2022-11-06T21:46:33.603Z,97543.22
2022-11-06T21:49:00.541Z,97541.34
2022-11-06T21:51:33.054Z,97533.56
2022-11-06T21:54:19.509Z,97523.94
2022-11-06T21:56:50.863Z,97543.59
2022-11-06T21:59:23.614Z,97536.78
2022-11-06T22:01:50.888Z,97539.19
2022-11-06T22:04:20.571Z,97544.25
2022-11-06T22:06:47.303Z,97539.06
2022-11-06T22:09:14.703Z,97535.31
2022-11-06T22:11:44.226Z,97544.75
2022-11-06T22:14:15.184Z,97541.09
2022-11-06T22:16:45.787Z,97535.63
2022-11-06T22:19:13.504Z,97534.69
2022-11-06T22:21:41.705Z,97544.72
2022-11-06T22:24:11.047Z,97534.38
2022-11-06T22:26:38.050Z,97544.50
2022-11-06T22:29:12.833Z,97541.81
2022-11-06T22:31:40.218Z,97544.22
2022-11-06T22:34:07.129Z,97550.22
2022-11-06T22:36:36.378Z,97557.03
2022-11-06T22:39:09.291Z,97568.22
2022-11-06T22:41:37.151Z,97559.53
2022-11-06T22:44:04.958Z,97561.19
2022-11-06T22:46:31.990Z,97569.66
2022-11-06T22:48:58.909Z,97555.88
2022-11-06T22:51:29.938Z,97560.94
2022-11-06T22:53:57.450Z,97569.53
2022-11-06T22:56:26.647Z,97567.78
2022-11-06T22:58:56.883Z,97558.34
2022-11-06T23:01:26.807Z,97574.63
2022-11-06T23:03:57.708Z,97572.13
2022-11-06T23:06:25.912Z,97572.13
2022-11-06T23:08:53.395Z,97575.56
2022-11-06T23:11:23.326Z,97579.19
2022-11-06T23:13:50.204Z,97578.25
2022-11-06T23:16:42.262Z,97586.84
2022-11-06T23:19:11.545Z,97585.19
2022-11-06T23:21:38.972Z,97586.03
2022-11-06T23:24:06.592Z,97585.19
2022-11-06T23:26:33.469Z,97590.38
2022-11-06T23:29:00.504Z,97592.03
2022-11-06T23:31:27.401Z,97599.69
2022-11-06T23:33:55.916Z,97585.78
2022-11-06T23:36:22.625Z,97595.44
2022-11-06T23:38:53.736Z,97580.00
2022-11-06T23:41:39.126Z,97588.72
2022-11-06T23:44:26.020Z,97582.94
2022-11-06T23:46:52.988Z,97588.31
2022-11-06T23:49:19.701Z,97587.47
2022-11-06T23:51:46.501Z,97588.50
2022-11-06T23:54:13.336Z,97581.47
2022-11-06T23:56:40.159Z,97576.28
2022-11-06T23:59:06.848Z,97581.38
